Time;durP1;ratioP1;P1;durP2;ratioP2;P2;SDS_P1;SDS_P2;PMS_P1;PMS_P2;Temp;Humidity;BMP_temperature;BMP_pressure;BME280_temperature;BME280_humidity;BME280_pressure;Samples;Min_cycle;Max_cycle;Signal;HPM_P1;HPM_P2
2023/10/27 00:00:07;;;;;;;2.47;2.28;;;;;;;22.36;46.51;99223.06;5038289;28;20032;-47
2023/10/27 00:02:36;;;;;;;2.08;1.88;;;;;;;22.37;46.49;99233.66;5034880;28;20029;-50
2023/10/27 00:05:02;;;;;;;2.30;2.03;;;;;;;22.35;46.46;99224.13;5036589;28;20033;-47
2023/10/27 00:07:27;;;;;;;3.50;2.22;;;;;;;22.31;46.64;99229.19;5034698;28;20057;-49
2023/10/27 00:09:52;;;;;;;2.13;1.92;;;;;;;22.28;46.38;99218.81;5033622;28;20412;-48
2023/10/27 00:12:17;;;;;;;2.05;1.83;;;;;;;22.25;46.74;99216.56;5035049;28;20117;-47
2023/10/27 00:14:43;;;;;;;2.75;2.30;;;;;;;22.20;46.96;99214.53;5038413;28;20037;-47
2023/10/27 00:17:08;;;;;;;2.42;2.22;;;;;;;22.17;46.73;99223.16;5036355;28;20065;-47
2023/10/27 00:19:33;;;;;;;2.75;2.38;;;;;;;22.12;46.65;99223.00;5038137;28;20033;-47
2023/10/27 00:21:58;;;;;;;2.20;2.00;;;;;;;21.89;47.10;99198.53;5038462;28;20041;-47
2023/10/27 00:24:24;;;;;;;2.50;2.30;;;;;;;21.99;47.23;99217.75;5034878;28;20039;-47
2023/10/27 00:26:49;;;;;;;2.42;2.22;;;;;;;21.88;47.19;99210.41;5033048;28;20037;-45
2023/10/27 00:29:14;;;;;;;2.55;2.35;;;;;;;21.92;47.19;99217.03;5037278;28;20051;-48
2023/10/27 00:31:40;;;;;;;2.17;1.98;;;;;;;21.94;47.12;99223.03;5031875;28;20061;-47
2023/10/27 00:34:05;;;;;;;2.28;1.88;;;;;;;21.91;47.05;99218.88;5029095;28;20030;-53
2023/10/27 00:36:30;;;;;;;2.83;2.30;;;;;;;21.88;47.49;99221.25;5034448;28;20032;-50
2023/10/27 00:38:55;;;;;;;2.55;2.30;;;;;;;21.83;47.51;99211.06;5035303;28;20025;-47
2023/10/27 00:41:23;;;;;;;2.70;2.40;;;;;;;21.82;47.33;99214.03;5034905;28;20041;-49
2023/10/27 00:43:48;;;;;;;2.67;2.40;;;;;;;21.81;47.57;99204.25;5036369;28;20060;-46
2023/10/27 00:46:14;;;;;;;2.40;2.20;;;;;;;21.70;47.56;99189.63;5035812;28;20034;-48
2023/10/27 00:48:39;;;;;;;2.35;2.15;;;;;;;21.76;47.66;99201.44;5037502;28;20462;-50
2023/10/27 00:51:05;;;;;;;3.40;2.47;;;;;;;21.74;47.81;99206.22;5013042;28;20087;-47
2023/10/27 00:53:31;;;;;;;2.92;2.10;;;;;;;21.71;47.72;99202.94;5026562;28;20029;-47
2023/10/27 00:55:57;;;;;;;2.20;2.00;;;;;;;21.64;47.73;99193.25;5010543;28;20037;-48
2023/10/27 00:58:22;;;;;;;2.53;2.33;;;;;;;21.63;47.68;99194.31;5035330;28;20112;-48
2023/10/27 01:00:47;;;;;;;2.42;2.22;;;;;;;21.44;47.71;99169.97;5024877;28;20064;-47
2023/10/27 01:03:13;;;;;;;2.30;2.10;;;;;;;21.66;47.60;99204.66;5011505;28;20032;-46
2023/10/27 01:05:38;;;;;;;2.30;2.10;;;;;;;21.63;47.94;99195.13;5034862;28;20064;-49
2023/10/27 01:08:03;;;;;;;2.72;2.42;;;;;;;21.58;47.82;99196.84;5035579;28;20099;-53
2023/10/27 01:10:29;;;;;;;2.22;2.03;;;;;;;21.61;47.68;99196.41;5038025;28;20058;-51
2023/10/27 01:12:54;;;;;;;2.67;2.47;;;;;;;21.60;48.08;99197.47;5028364;28;20108;-49
2023/10/27 01:15:19;;;;;;;3.75;2.35;;;;;;;21.57;47.72;99196.03;5030834;28;20133;-49
2023/10/27 01:17:45;;;;;;;2.33;2.13;;;;;;;21.56;47.97;99196.25;5030656;28;20044;-48
2023/10/27 01:20:10;;;;;;;2.58;2.22;;;;;;;21.54;48.05;99193.81;5037363;28;20029;-48
2023/10/27 01:22:44;;;;;;;2.33;2.13;;;;;;;21.52;48.00;99195.06;5041126;28;20057;-47
2023/10/27 01:25:10;;;;;;;2.45;2.25;;;;;;;21.50;48.29;99192.59;5033373;28;20018;-47
2023/10/27 01:27:35;;;;;;;2.45;2.25;;;;;;;21.48;47.74;99188.47;5031039;28;20048;-47
2023/10/27 01:30:00;;;;;;;2.22;2.03;;;;;;;21.46;48.14;99189.53;5036294;28;20033;-47
2023/10/27 01:32:26;;;;;;;2.55;2.35;;;;;;;21.44;48.25;99183.50;5034364;28;20025;-48
2023/10/27 01:34:51;;;;;;;2.88;2.15;;;;;;;21.42;48.10;99191.03;5032226;28;20509;-47
2023/10/27 01:37:16;;;;;;;2.47;2.28;;;;;;;21.40;48.29;99184.19;5030004;28;20032;-48
2023/10/27 01:39:44;;;;;;;2.35;2.13;;;;;;;21.39;48.07;99187.94;5033149;28;20033;-48
2023/10/27 01:42:10;;;;;;;6.70;3.20;;;;;;;21.38;48.50;99181.72;5032700;28;20507;-49
2023/10/27 01:44:35;;;;;;;2.30;2.10;;;;;;;21.35;48.28;99182.16;5037815;28;20025;-51
2023/10/27 01:47:00;;;;;;;2.70;2.50;;;;;;;21.34;48.12;99185.94;5021422;28;20033;-49
2023/10/27 01:49:26;;;;;;;2.92;2.63;;;;;;;21.34;48.44;99185.09;5033018;28;20029;-51
2023/10/27 01:51:51;;;;;;;3.13;2.70;;;;;;;21.31;48.49;99180.94;5031365;28;20060;-50
2023/10/27 01:54:17;;;;;;;2.70;2.45;;;;;;;21.29;48.45;99179.53;5032897;28;20113;-48
2023/10/27 01:56:42;;;;;;;2.40;2.20;;;;;;;21.26;48.65;99180.78;5029999;28;20037;-49
2023/10/27 01:59:07;;;;;;;2.35;2.00;;;;;;;21.24;48.28;99174.78;5033808;28;20085;-49
2023/10/27 02:01:33;;;;;;;2.50;2.30;;;;;;;21.21;48.65;99175.25;5032358;28;20530;-48
2023/10/27 02:03:58;;;;;;;2.67;2.47;;;;;;;21.20;48.75;99179.00;5036828;28;20029;-46
2023/10/27 02:06:25;;;;;;;2.55;2.35;;;;;;;21.18;48.56;99184.63;5034179;28;20056;-47
2023/10/27 02:08:51;;;;;;;2.28;2.08;;;;;;;21.11;48.70;99164.13;5035716;28;20025;-48
2023/10/27 02:11:16;;;;;;;2.60;2.40;;;;;;;21.15;48.49;99171.56;5034404;28;20045;-47
2023/10/27 02:13:41;;;;;;;2.35;2.15;;;;;;;21.14;48.75;99175.31;5027255;28;20464;-46
2023/10/27 02:16:08;;;;;;;2.75;2.55;;;;;;;21.13;48.58;99170.13;5030974;28;20037;-47
2023/10/27 02:18:33;;;;;;;2.60;2.40;;;;;;;21.10;48.52;99173.28;5031188;28;20324;-46
2023/10/27 02:20:58;;;;;;;3.28;2.65;;;;;;;21.08;48.88;99178.09;5027437;28;20024;-47
2023/10/27 02:23:25;;;;;;;2.95;2.75;;;;;;;21.06;48.96;99174.78;5032191;28;20097;-47
2023/10/27 02:25:51;;;;;;;3.63;2.50;;;;;;;21.04;48.77;99179.59;5015682;28;20036;-50
2023/10/27 02:28:16;;;;;;;2.35;2.15;;;;;;;21.02;49.17;99189.78;5033649;28;20064;-46
2023/10/27 02:30:41;;;;;;;3.00;2.70;;;;;;;20.99;48.82;99185.69;5033729;28;20091;-47
2023/10/27 02:33:07;;;;;;;2.78;2.53;;;;;;;20.98;48.94;99184.00;5033529;28;20034;-47
2023/10/27 02:35:32;;;;;;;2.70;2.45;;;;;;;20.96;49.02;99181.53;5031309;28;20033;-47
2023/10/27 02:37:57;;;;;;;2.63;2.42;;;;;;;20.92;48.89;99183.03;5029670;28;20053;-47
2023/10/27 02:40:23;;;;;;;2.95;2.65;;;;;;;20.94;49.03;99189.06;5032693;28;20044;-47
2023/10/27 02:42:48;;;;;;;3.00;2.70;;;;;;;20.93;48.87;99184.66;5028498;28;20033;-46
2023/10/27 02:45:14;;;;;;;3.08;2.78;;;;;;;20.91;49.39;99184.09;5039369;28;20033;-48
2023/10/27 02:47:40;;;;;;;2.63;2.42;;;;;;;20.90;48.87;99182.44;5037467;28;20033;-47
2023/10/27 02:50:05;;;;;;;2.83;2.63;;;;;;;20.84;49.18;99174.38;5028017;28;20036;-48
2023/10/27 02:52:30;;;;;;;2.75;2.53;;;;;;;20.87;49.11;99180.19;5031918;28;20468;-47
2023/10/27 02:54:56;;;;;;;2.63;2.42;;;;;;;20.86;49.11;99183.94;5034888;28;20061;-49
2023/10/27 02:57:21;;;;;;;3.20;2.65;;;;;;;20.85;49.35;99182.25;5033479;28;20017;-46
2023/10/27 02:59:46;;;;;;;2.60;2.40;;;;;;;20.84;49.40;99179.78;5033941;28;20041;-48
2023/10/27 03:02:12;;;;;;;3.10;2.80;;;;;;;20.81;49.37;99166.72;5026597;28;20044;-47
2023/10/27 03:04:37;;;;;;;2.67;2.47;;;;;;;20.66;49.43;99151.72;5024108;28;20111;-48
2023/10/27 03:07:02;;;;;;;3.17;2.88;;;;;;;20.81;49.37;99178.34;5032181;28;20032;-46
2023/10/27 03:09:28;;;;;;;2.83;2.63;;;;;;;20.80;49.35;99181.28;5036188;28;20030;-47
2023/10/27 03:11:53;;;;;;;2.63;2.42;;;;;;;20.78;49.10;99176.13;5035949;28;20032;-47
2023/10/27 03:14:18;;;;;;;2.80;2.58;;;;;;;20.63;49.38;99154.84;5027743;28;20223;-49
2023/10/27 03:16:44;;;;;;;3.20;2.90;;;;;;;20.76;49.08;99175.50;5018284;28;20028;-48
2023/10/27 03:19:09;;;;;;;3.10;2.50;;;;;;;20.76;49.50;99169.28;5033099;28;20040;-47
2023/10/27 03:21:35;;;;;;;3.03;2.72;;;;;;;20.74;49.38;99174.91;5030409;28;20073;-49
2023/10/27 03:24:00;;;;;;;3.30;2.85;;;;;;;20.74;49.56;99174.09;5032102;28;20022;-46
2023/10/27 03:26:25;;;;;;;3.60;3.30;;;;;;;20.56;49.62;99137.91;5030009;28;20025;-49
2023/10/27 03:28:51;;;;;;;3.08;2.78;;;;;;;20.64;49.41;99155.66;5032504;28;20054;-46
2023/10/27 03:31:17;;;;;;;3.20;2.90;;;;;;;20.62;49.22;99149.69;5033547;28;20461;-46
2023/10/27 03:33:43;;;;;;;3.28;2.97;;;;;;;20.69;49.60;99155.84;5034618;28;20040;-46
2023/10/27 03:36:08;;;;;;;3.30;2.92;;;;;;;20.54;49.53;99137.28;5033406;28;20057;-46
2023/10/27 03:38:34;;;;;;;3.25;2.80;;;;;;;20.62;49.61;99150.50;5029266;28;20452;-47
2023/10/27 03:40:59;;;;;;;3.08;2.72;;;;;;;20.65;49.38;99160.03;5031136;28;20026;-46
2023/10/27 03:43:24;;;;;;;3.30;3.00;;;;;;;20.64;49.40;99151.09;5032490;28;20121;-46
2023/10/27 03:45:49;;;;;;;2.55;2.35;;;;;;;20.62;49.61;99155.09;5031961;28;20022;-47
2023/10/27 03:48:15;;;;;;;3.17;2.88;;;;;;;20.62;49.60;99153.22;5023804;28;20034;-47
2023/10/27 03:50:40;;;;;;;3.05;2.75;;;;;;;20.61;49.94;99154.25;5036788;28;20040;-48
2023/10/27 03:53:05;;;;;;;3.10;2.80;;;;;;;20.61;49.70;99150.75;5031194;28;20102;-48
2023/10/27 03:55:31;;;;;;;2.70;2.50;;;;;;;20.59;49.73;99150.13;5034185;28;20423;-51
2023/10/27 03:58:11;;;;;;;2.95;2.60;;;;;;;20.55;49.89;99141.63;5034397;28;20056;-48
2023/10/27 04:00:37;;;;;;;2.90;2.60;;;;;;;20.58;49.80;99148.47;5032411;28;20045;-51
2023/10/27 04:03:02;;;;;;;2.85;2.65;;;;;;;20.56;49.88;99148.72;5029392;28;20034;-46
2023/10/27 04:05:27;;;;;;;2.90;2.70;;;;;;;20.56;49.74;99145.16;5026985;28;20109;-46
2023/10/27 04:07:52;;;;;;;3.33;3.03;;;;;;;20.55;50.00;99138.94;5030541;28;20030;-46
2023/10/27 04:10:18;;;;;;;3.13;2.70;;;;;;;20.55;49.76;99141.63;5032812;28;20061;-48
2023/10/27 04:12:43;;;;;;;3.83;2.90;;;;;;;20.55;49.55;99141.63;5037285;28;20040;-45
2023/10/27 04:15:09;;;;;;;3.00;2.70;;;;;;;20.54;49.68;99141.88;5031536;28;20029;-47
2023/10/27 04:17:34;;;;;;;3.17;2.88;;;;;;;20.53;50.02;99141.03;5030687;28;20029;-48
2023/10/27 04:19:59;;;;;;;3.38;3.08;;;;;;;20.53;49.53;99138.34;5034908;28;20045;-45
2023/10/27 04:22:24;;;;;;;3.58;3.08;;;;;;;20.52;49.80;99135.84;5031423;28;20036;-47
2023/10/27 04:24:50;;;;;;;3.20;2.90;;;;;;;20.52;50.06;99138.53;5031568;28;20056;-49
2023/10/27 04:27:16;;;;;;;3.10;2.80;;;;;;;20.51;50.04;99136.91;5030991;28;20033;-46
2023/10/27 04:29:41;;;;;;;3.67;2.80;;;;;;;20.50;49.68;99143.34;5032269;28;20056;-46
2023/10/27 04:32:06;;;;;;;2.65;2.45;;;;;;;20.49;50.11;99134.44;5035518;28;20044;-47
2023/10/27 04:34:31;;;;;;;3.47;2.80;;;;;;;20.32;49.87;99109.84;5038401;28;20057;-47
2023/10/27 04:36:57;;;;;;;3.33;2.92;;;;;;;20.48;50.04;99135.50;5039871;28;20037;-47
2023/10/27 04:39:22;;;;;;;2.83;2.63;;;;;;;20.46;50.11;99132.97;5040637;28;20025;-48
2023/10/27 04:41:47;;;;;;;2.70;2.50;;;;;;;20.47;50.26;99140.03;5035398;28;20436;-49
2023/10/27 04:44:12;;;;;;;3.20;2.60;;;;;;;20.44;50.08;99126.97;5034972;28;20223;-50
2023/10/27 04:46:38;;;;;;;3.75;3.03;;;;;;;20.46;50.34;99130.25;5031965;28;20376;-48
2023/10/27 04:49:04;;;;;;;3.13;2.83;;;;;;;20.44;50.06;99126.16;5029742;28;20034;-52
2023/10/27 04:51:29;;;;;;;3.20;2.90;;;;;;;20.45;50.33;99134.00;5032729;28;20033;-48
2023/10/27 04:53:54;;;;;;;3.40;2.88;;;;;;;20.41;50.63;99122.00;5033835;28;20038;-46
2023/10/27 04:56:19;;;;;;;3.28;2.97;;;;;;;20.46;50.63;99132.97;5036115;28;20044;-48
2023/10/27 04:58:46;;;;;;;3.10;2.70;;;;;;;20.45;50.65;99128.63;5038912;28;20037;-50
2023/10/27 05:01:12;;;;;;;4.25;3.10;;;;;;;20.45;50.26;99128.63;5013674;28;20033;-49
2023/10/27 05:03:38;;;;;;;3.20;2.90;;;;;;;20.45;50.52;99122.41;5031101;28;20495;-49
2023/10/27 05:06:10;;;;;;;4.05;3.15;;;;;;;20.44;50.75;99126.97;5033401;28;20026;-47
2023/10/27 05:08:35;;;;;;;3.72;3.33;;;;;;;20.44;50.66;99126.97;5031929;28;20068;-48
2023/10/27 05:11:00;;;;;;;3.88;3.20;;;;;;;20.44;50.96;99120.75;5034772;28;20136;-47
2023/10/27 05:13:26;;;;;;;3.70;3.00;;;;;;;20.43;50.85;99122.63;5030224;28;20089;-53
2023/10/27 05:15:53;;;;;;;3.30;3.00;;;;;;;20.43;50.77;99119.94;5034745;28;20032;-49
2023/10/27 05:18:18;;;;;;;3.63;3.13;;;;;;;20.43;51.07;99116.38;5038364;28;20030;-49
2023/10/27 05:20:44;;;;;;;3.63;3.33;;;;;;;20.43;50.94;99117.22;5037660;28;20037;-48
2023/10/27 05:23:09;;;;;;;3.22;2.83;;;;;;;20.42;51.17;99118.25;5037213;28;20029;-46
2023/10/27 05:25:35;;;;;;;3.20;2.80;;;;;;;20.42;51.18;99117.44;5035686;28;20404;-50
2023/10/27 05:28:00;;;;;;;3.40;3.10;;;;;;;20.42;51.23;99114.72;5035994;28;20029;-46
2023/10/27 05:30:25;;;;;;;6.43;3.28;;;;;;;20.42;51.10;99110.16;5029432;28;20037;-47
2023/10/27 05:32:50;;;;;;;3.22;2.50;;;;;;;20.40;50.88;99114.16;5037732;28;20075;-52
2023/10/27 05:35:16;;;;;;;3.53;2.90;;;;;;;20.33;50.91;99100.69;5034021;28;20060;-47
2023/10/27 05:37:41;;;;;;;3.30;3.00;;;;;;;20.39;51.10;99112.47;5033255;28;20037;-46
2023/10/27 05:40:07;;;;;;;4.85;3.08;;;;;;;20.39;51.16;99113.31;5032153;28;20022;-48
2023/10/27 05:42:32;;;;;;;3.08;2.78;;;;;;;20.38;51.27;99114.34;5036176;28;20105;-48
2023/10/27 05:44:57;;;;;;;3.30;3.00;;;;;;;20.38;50.93;99117.03;5035685;28;20542;-50
2023/10/27 05:47:23;;;;;;;6.28;4.07;;;;;;;20.37;51.35;99110.00;5034955;28;20037;-49
2023/10/27 05:49:50;;;;;;;3.97;3.58;;;;;;;20.27;50.89;99093.50;5032202;28;20045;-49
2023/10/27 05:52:16;;;;;;;4.25;3.55;;;;;;;20.36;51.31;99111.06;5029217;28;20056;-49
2023/10/27 05:54:43;;;;;;;3.33;3.03;;;;;;;20.31;51.41;99096.59;5030665;28;20021;-47
2023/10/27 05:57:08;;;;;;;3.83;3.47;;;;;;;20.35;51.45;99112.09;5031401;28;20025;-48
2023/10/27 05:59:34;;;;;;;3.40;2.90;;;;;;;20.34;51.41;99110.44;5039472;28;20064;-50
2023/10/27 06:02:00;;;;;;;3.45;3.15;;;;;;;20.33;51.55;99106.09;5036535;28;20036;-49
2023/10/27 06:04:25;;;;;;;3.20;2.90;;;;;;;20.34;51.57;99110.44;5028991;28;20032;-50
2023/10/27 06:06:50;;;;;;;4.13;3.33;;;;;;;20.33;51.36;99105.28;5033242;28;20075;-48
2023/10/27 06:09:16;;;;;;;3.83;3.42;;;;;;;20.33;51.38;99111.50;5033829;28;20025;-48
2023/10/27 06:11:41;;;;;;;3.47;3.17;;;;;;;20.32;51.25;99111.72;5032033;28;20018;-47
2023/10/27 06:14:07;;;;;;;4.57;3.67;;;;;;;20.32;51.53;99109.03;5026878;28;20030;-48
2023/10/27 06:16:32;;;;;;;3.38;3.08;;;;;;;20.32;51.46;99111.72;5027931;28;20053;-48
2023/10/27 06:18:57;;;;;;;3.22;2.92;;;;;;;20.30;51.58;99114.63;5029888;28;20026;-46
2023/10/27 06:21:23;;;;;;;3.88;3.40;;;;;;;20.30;51.27;99116.50;5035610;28;20036;-50
2023/10/27 06:23:48;;;;;;;3.17;2.78;;;;;;;20.29;51.54;99110.28;5037327;28;20105;-47
2023/10/27 06:26:13;;;;;;;3.05;2.75;;;;;;;20.29;51.16;99115.69;5032808;28;20025;-48
2023/10/27 06:28:39;;;;;;;3.38;2.92;;;;;;;20.28;51.54;99119.44;5023981;28;20121;-48
2023/10/27 06:31:05;;;;;;;6.28;3.60;;;;;;;20.28;51.44;99116.72;5033159;28;20037;-50
2023/10/27 06:33:33;;;;;;;3.58;3.28;;;;;;;20.28;51.81;99113.22;5018462;28;20588;-47
2023/10/27 06:36:01;;;;;;;3.38;3.05;;;;;;;20.28;51.68;99121.31;5029214;28;20061;-45
2023/10/27 06:38:27;;;;;;;4.63;3.40;;;;;;;20.22;51.82;99104.97;5025655;28;20068;-49
2023/10/27 06:40:52;;;;;;;3.60;3.25;;;;;;;20.21;51.64;99107.84;5030598;28;20026;-47
2023/10/27 06:43:18;;;;;;;3.17;2.88;;;;;;;20.21;51.71;99110.56;5033030;28;20491;-47
2023/10/27 06:45:44;;;;;;;5.35;3.80;;;;;;;20.26;51.50;99123.38;5037859;28;20033;-46
2023/10/27 06:48:09;;;;;;;3.58;3.20;;;;;;;20.00;51.49;99076.69;5037378;28;20045;-49
2023/10/27 06:50:34;;;;;;;5.82;3.50;;;;;;;20.21;51.74;99122.16;5028095;28;20022;-46
2023/10/27 06:52:59;;;;;;;4.10;3.15;;;;;;;20.23;51.62;99130.06;5032811;28;20645;-45
2023/10/27 06:55:25;;;;;;;3.72;3.42;;;;;;;20.23;51.93;99127.38;5030891;28;20034;-47
2023/10/27 06:57:50;;;;;;;4.03;3.05;;;;;;;20.24;51.45;99126.31;5030630;28;20033;-48
2023/10/27 07:00:15;;;;;;;3.40;2.83;;;;;;;20.06;51.56;99105.50;5024832;28;20026;-49
2023/10/27 07:02:41;;;;;;;3.90;3.38;;;;;;;20.22;51.44;99131.13;5027867;28;20058;-46
2023/10/27 07:05:08;;;;;;;4.00;3.42;;;;;;;20.20;51.54;99125.91;5028215;28;20052;-48
2023/10/27 07:07:34;;;;;;;3.40;3.10;;;;;;;20.18;51.75;99132.59;5033661;28;20020;-46
2023/10/27 07:09:59;;;;;;;3.80;3.40;;;;;;;20.07;51.68;99101.75;5034949;28;20054;-47
2023/10/27 07:12:24;;;;;;;4.07;3.67;;;;;;;20.18;51.51;99125.34;5033233;28;20036;-47
2023/10/27 07:14:49;;;;;;;6.57;3.40;;;;;;;20.18;51.67;99133.44;5025105;28;20022;-48
2023/10/27 07:17:15;;;;;;;4.57;3.40;;;;;;;20.17;51.56;99130.94;5030555;28;20037;-48
2023/10/27 07:19:40;;;;;;;5.03;3.60;;;;;;;20.17;51.65;99131.75;5022839;28;20038;-47
2023/10/27 07:22:05;;;;;;;4.15;3.72;;;;;;;20.16;51.80;99132.81;5029283;28;20033;-48
2023/10/27 07:24:32;;;;;;;3.78;3.35;;;;;;;20.04;51.69;99109.44;5032103;28;20113;-48
2023/10/27 07:26:57;;;;;;;4.72;3.42;;;;;;;20.15;51.51;99131.16;5027902;28;20026;-46
2023/10/27 07:29:23;;;;;;;3.58;3.00;;;;;;;20.13;51.57;99135.13;5029475;28;20041;-47
2023/10/27 07:31:48;;;;;;;4.18;3.78;;;;;;;20.13;51.48;99129.72;5033492;28;20383;-45
2023/10/27 07:34:14;;;;;;;3.72;3.40;;;;;;;20.11;51.50;99129.94;5031563;28;20034;-46
2023/10/27 07:36:40;;;;;;;4.10;3.70;;;;;;;19.91;51.65;99103.13;5034664;28;20089;-51
2023/10/27 07:39:05;;;;;;;4.93;3.90;;;;;;;20.10;52.05;99127.47;5029198;28;20295;-47
2023/10/27 07:41:32;;;;;;;4.10;3.65;;;;;;;20.11;51.79;99135.34;5011890;28;20099;-46
2023/10/27 07:43:57;;;;;;;4.68;3.03;;;;;;;20.03;52.09;99115.91;5034807;28;20040;-49
2023/10/27 07:46:23;;;;;;;4.07;3.10;;;;;;;20.00;51.93;99113.63;5036612;28;20108;-45
2023/10/27 07:48:48;;;;;;;3.88;3.40;;;;;;;20.10;52.22;99131.00;5039856;28;20029;-48
2023/10/27 07:51:13;;;;;;;4.10;3.72;;;;;;;20.11;52.13;99134.53;5036567;28;20072;-49
2023/10/27 07:53:38;;;;;;;3.70;3.30;;;;;;;20.10;52.36;99128.31;5033212;28;20137;-46
2023/10/27 07:56:04;;;;;;;3.65;3.35;;;;;;;20.10;51.93;99135.56;5033556;28;20040;-46
2023/10/27 07:58:29;;;;;;;3.47;3.17;;;;;;;20.10;52.04;99128.31;5032648;28;20516;-45
2023/10/27 08:00:55;;;;;;;4.35;3.60;;;;;;;20.12;52.14;99141.56;5033637;28;20088;-46
2023/10/27 08:03:21;;;;;;;5.97;3.53;;;;;;;20.10;51.99;99130.19;5019775;28;20037;-45
2023/10/27 08:05:47;;;;;;;3.97;3.58;;;;;;;20.11;51.87;99131.81;5031854;28;20037;-47
2023/10/27 08:08:12;;;;;;;3.80;3.28;;;;;;;20.08;52.30;99130.38;5036169;28;20061;-46
2023/10/27 08:10:38;;;;;;;10.98;4.53;;;;;;;20.09;51.95;99129.34;5035723;28;20061;-47
2023/10/27 08:13:05;;;;;;;3.50;3.20;;;;;;;20.09;51.83;99132.06;5038605;28;20099;-46
2023/10/27 08:15:31;;;;;;;5.38;3.22;;;;;;;20.08;52.25;99132.25;5034943;28;20403;-46
2023/10/27 08:17:56;;;;;;;4.47;3.65;;;;;;;20.07;51.92;99138.69;5032914;28;20033;-49
2023/10/27 08:20:21;;;;;;;4.55;4.07;;;;;;;20.06;52.19;99137.06;5033443;28;20097;-48
2023/10/27 08:22:47;;;;;;;3.45;3.10;;;;;;;20.05;52.13;99138.94;5025415;28;20056;-45
2023/10/27 08:25:12;;;;;;;3.33;3.03;;;;;;;19.92;51.88;99117.41;5034675;28;20021;-47
2023/10/27 08:27:37;;;;;;;4.13;3.20;;;;;;;20.05;52.01;99140.78;5029289;28;20076;-48
2023/10/27 08:30:03;;;;;;;3.58;3.25;;;;;;;19.80;51.78;99103.00;5034942;28;20048;-48
2023/10/27 08:32:28;;;;;;;3.90;3.33;;;;;;;20.03;52.02;99138.31;5036432;28;20085;-47
2023/10/27 08:34:54;;;;;;;3.90;3.50;;;;;;;20.01;52.15;99140.41;5039448;28;20056;-47
2023/10/27 08:37:19;;;;;;;3.97;3.22;;;;;;;20.01;51.75;99143.09;5037265;28;20025;-48
2023/10/27 08:39:45;;;;;;;4.28;3.53;;;;;;;20.00;51.94;99133.34;5033429;28;20033;-46
2023/10/27 08:42:10;;;;;;;3.50;3.20;;;;;;;20.00;51.97;99136.03;5031743;28;20060;-46
2023/10/27 08:44:36;;;;;;;3.95;3.55;;;;;;;20.00;51.54;99137.91;5030868;28;20145;-46
2023/10/27 08:47:04;;;;;;;3.78;3.20;;;;;;;20.00;52.02;99140.59;5032074;28;20033;-47
2023/10/27 08:49:30;;;;;;;3.47;2.92;;;;;;;19.98;52.16;99140.84;5032287;28;20040;-46
2023/10/27 08:51:57;;;;;;;4.05;3.60;;;;;;;19.97;51.83;99139.19;5034033;28;20033;-48
2023/10/27 08:54:22;;;;;;;4.70;3.50;;;;;;;19.96;51.91;99143.75;5024051;28;20033;-46
2023/10/27 08:56:48;;;;;;;3.42;2.80;;;;;;;19.91;51.75;99137.34;5036475;28;20034;-48
2023/10/27 08:59:14;;;;;;;3.50;3.13;;;;;;;19.94;51.88;99143.13;5026414;28;20479;-47
2023/10/27 09:01:39;;;;;;;4.00;3.58;;;;;;;19.90;51.80;99131.13;5030921;28;20069;-50
2023/10/27 09:04:11;;;;;;;3.40;2.80;;;;;;;19.92;52.24;99141.69;5027738;28;20017;-49
2023/10/27 09:06:38;;;;;;;3.30;3.00;;;;;;;19.94;51.90;99145.84;5030427;28;20036;-50
2023/10/27 09:09:09;;;;;;;4.20;3.78;;;;;;;19.93;52.15;99140.69;5028944;28;20085;-46
2023/10/27 09:11:39;;;;;;;3.30;3.00;;;;;;;19.93;51.71;99148.75;5033118;28;20053;-48
2023/10/27 09:14:16;;;;;;;3.20;2.90;;;;;;;19.86;51.95;99135.31;5035149;28;20025;-49
2023/10/27 09:16:41;;;;;;;3.50;3.20;;;;;;;19.93;52.10;99154.16;5032317;28;20492;-48
2023/10/27 09:19:20;;;;;;;3.50;3.20;;;;;;;19.92;51.83;99152.47;5035756;28;20085;-47
2023/10/27 09:21:45;;;;;;;3.50;3.20;;;;;;;19.82;51.90;99131.41;5031851;28;20089;-47
2023/10/27 09:24:19;;;;;;;3.63;3.10;;;;;;;19.91;51.74;99154.34;5034188;28;20029;-46
2023/10/27 09:26:47;;;;;;;4.72;3.47;;;;;;;19.91;51.76;99154.34;5024703;28;20029;-48
2023/10/27 09:29:13;;;;;;;3.17;2.88;;;;;;;19.86;52.25;99148.78;5030814;28;20029;-45
2023/10/27 09:31:38;;;;;;;3.58;3.00;;;;;;;19.91;52.32;99157.06;5034370;28;20064;-49
2023/10/27 09:34:21;;;;;;;4.75;3.17;;;;;;;19.90;51.93;99163.50;5034376;28;20124;-47
2023/10/27 09:36:48;;;;;;;3.75;3.35;;;;;;;19.91;52.20;99157.06;5037874;28;20056;-48
2023/10/27 09:39:18;;;;;;;3.63;2.83;;;;;;;19.91;51.83;99161.63;5030173;28;20049;-48
2023/10/27 09:41:46;;;;;;;3.50;3.20;;;;;;;19.92;52.33;99165.97;5014666;28;20054;-46
2023/10/27 09:44:14;;;;;;;4.03;3.07;;;;;;;19.91;52.22;99161.63;5033379;28;20032;-48
2023/10/27 09:46:39;;;;;;;3.22;2.92;;;;;;;19.93;51.86;99164.94;5032260;28;20346;-47
2023/10/27 09:49:07;;;;;;;3.60;3.17;;;;;;;19.93;52.21;99162.25;5012928;28;20396;-48
2023/10/27 09:51:34;;;;;;;3.45;3.15;;;;;;;19.94;51.93;99170.13;5026561;28;20041;-46
2023/10/27 09:54:00;;;;;;;3.40;3.00;;;;;;;19.95;51.88;99165.53;5024162;28;20482;-51
2023/10/27 09:56:26;;;;;;;3.42;2.90;;;;;;;19.92;52.27;99161.44;5017733;28;20036;-47
2023/10/27 09:58:51;;;;;;;3.25;2.95;;;;;;;19.98;52.29;99170.50;5021478;28;20067;-49
2023/10/27 10:01:17;;;;;;;3.10;2.80;;;;;;;19.92;52.04;99161.44;5018888;28;20033;-47
2023/10/27 10:03:42;;;;;;;3.08;2.78;;;;;;;20.00;52.01;99168.41;5031399;28;20451;-47
2023/10/27 10:06:17;;;;;;;2.83;2.55;;;;;;;20.03;52.07;99172.56;5031043;28;20052;-49
2023/10/27 10:09:15;;;;;;;3.30;3.00;;;;;;;20.05;51.79;99181.25;5013872;28;20539;-47
2023/10/27 10:11:47;;;;;;;3.43;2.80;;;;;;;20.06;52.01;99178.34;5001593;28;20092;-47
2023/10/27 10:14:38;;;;;;;3.75;2.75;;;;;;;20.09;51.89;99177.06;5028700;28;20378;-49
2023/10/27 10:17:08;;;;;;;2.97;2.67;;;;;;;20.10;52.02;99176.03;5034489;28;20235;-48
2023/10/27 10:19:50;;;;;;;2.97;2.67;;;;;;;20.12;51.78;99176.63;5033306;28;20068;-50
2023/10/27 10:22:40;;;;;;;3.65;2.50;;;;;;;20.14;51.80;99186.19;5034561;28;20125;-49
2023/10/27 10:25:14;;;;;;;3.13;2.67;;;;;;;20.16;51.92;99180.56;5032719;28;20029;-48
2023/10/27 10:28:07;;;;;;;2.90;2.60;;;;;;;20.18;51.79;99173.09;5030806;28;20411;-46
2023/10/27 10:30:40;;;;;;;2.65;2.45;;;;;;;20.21;51.57;99178.03;5029750;28;20022;-49
2023/10/27 10:33:15;;;;;;;2.83;2.53;;;;;;;20.23;51.76;99171.38;5033620;28;20434;-51
2023/10/27 10:35:41;;;;;;;3.17;2.58;;;;;;;20.25;51.77;99173.84;5026665;28;20030;-47
2023/10/27 10:38:22;;;;;;;2.70;2.40;;;;;;;20.29;51.67;99176.94;5012861;28;20571;-47
2023/10/27 10:40:55;;;;;;;2.92;2.60;;;;;;;20.32;51.84;99176.50;5032242;28;20026;-49
2023/10/27 10:43:29;;;;;;;2.70;2.50;;;;;;;20.35;51.49;99176.88;5033119;28;20033;-46
2023/10/27 10:45:59;;;;;;;2.65;2.42;;;;;;;20.38;51.84;99172.91;5033602;28;20036;-47
2023/10/27 10:48:26;;;;;;;2.88;2.40;;;;;;;20.41;51.58;99175.16;5033328;28;20033;-49
2023/10/27 10:50:52;;;;;;;2.47;2.20;;;;;;;20.43;51.68;99175.75;5007814;28;20041;-51
2023/10/27 10:53:24;;;;;;;3.20;2.67;;;;;;;20.34;51.49;99156.31;5030033;28;20048;-47
2023/10/27 10:55:51;;;;;;;3.88;2.78;;;;;;;20.49;51.47;99176.81;5013975;28;20033;-48
2023/10/27 10:58:21;;;;;;;4.90;2.50;;;;;;;20.52;51.50;99173.63;5008597;28;20040;-46
2023/10/27 11:00:48;;;;;;;2.50;2.30;;;;;;;20.55;51.05;99170.50;5033349;28;20025;-49
2023/10/27 11:03:13;;;;;;;2.60;2.30;;;;;;;20.56;51.28;99173.00;5030969;28;20068;-52
2023/10/27 11:05:39;;;;;;;2.92;2.28;;;;;;;20.61;51.24;99172.34;5030083;28;20030;-45
2023/10/27 11:08:04;;;;;;;2.53;2.30;;;;;;;20.63;51.39;99173.75;5014001;28;20097;-50
2023/10/27 11:10:32;;;;;;;3.72;2.38;;;;;;;20.68;50.98;99175.78;5012685;28;20057;-49
2023/10/27 11:13:06;;;;;;;3.70;2.45;;;;;;;20.71;51.41;99169.94;5031191;28;20026;-45
2023/10/27 11:15:50;;;;;;;2.80;2.30;;;;;;;20.74;51.10;99171.38;5025692;28;20025;-45
2023/10/27 11:18:16;;;;;;;4.55;2.38;;;;;;;20.78;51.10;99173.41;5024525;28;20064;-51
2023/10/27 11:20:43;;;;;;;2.38;2.17;;;;;;;20.82;51.05;99179.19;5029937;28;20033;-48
2023/10/27 11:23:14;;;;;;;2.47;2.20;;;;;;;20.85;50.91;99168.75;5036113;28;20018;-47
2023/10/27 11:25:40;;;;;;;2.53;2.08;;;;;;;20.86;50.86;99170.44;5014091;28;20053;-49
2023/10/27 11:28:26;;;;;;;2.50;2.30;;;;;;;20.91;50.90;99173.28;5025783;28;20059;-49
2023/10/27 11:31:01;;;;;;;2.92;2.38;;;;;;;20.94;50.46;99167.44;5032334;28;20026;-48